sensor_id;sensor_type;location;lat;lon;timestamp;P1;durP1;ratioP1;P2;durP2;ratioP2
46689;SDS011;32423;45.398;10.874;2023-06-10T00:01:54;12.43;;;8.23;;
46689;SDS011;32423;45.398;10.874;2023-06-10T00:04:42;14.10;;;8.00;;
46689;SDS011;32423;45.398;10.874;2023-06-10T00:07:27;9.30;;;5.95;;
46689;SDS011;32423;45.398;10.874;2023-06-10T00:10:12;10.35;;;8.07;;
46689;SDS011;32423;45.398;10.874;2023-06-10T00:12:57;17.00;;;8.10;;
46689;SDS011;32423;45.398;10.874;2023-06-10T00:18:26;10.82;;;8.90;;
46689;SDS011;32423;45.398;10.874;2023-06-10T00:21:11;11.95;;;9.80;;
46689;SDS011;32423;45.398;10.874;2023-06-10T00:23:57;12.85;;;8.90;;
46689;SDS011;32423;45.398;10.874;2023-06-10T00:26:42;17.48;;;9.25;;
46689;SDS011;32423;45.398;10.874;2023-06-10T00:29:27;12.40;;;9.43;;
46689;SDS011;32423;45.398;10.874;2023-06-10T00:34:56;12.35;;;10.13;;
46689;SDS011;32423;45.398;10.874;2023-06-10T00:37:42;17.50;;;10.23;;
46689;SDS011;32423;45.398;10.874;2023-06-10T00:40:27;15.55;;;10.32;;
46689;SDS011;32423;45.398;10.874;2023-06-10T00:43:11;18.52;;;10.95;;
46689;SDS011;32423;45.398;10.874;2023-06-10T00:45:56;12.45;;;9.60;;
46689;SDS011;32423;45.398;10.874;2023-06-10T00:48:41;13.85;;;9.70;;
46689;SDS011;32423;45.398;10.874;2023-06-10T00:51:28;16.40;;;10.23;;
46689;SDS011;32423;45.398;10.874;2023-06-10T00:54:13;14.07;;;9.07;;
46689;SDS011;32423;45.398;10.874;2023-06-10T00:57:00;12.75;;;10.23;;
46689;SDS011;32423;45.398;10.874;2023-06-10T00:59:47;13.63;;;10.25;;
46689;SDS011;32423;45.398;10.874;2023-06-10T01:02:33;12.40;;;10.00;;
46689;SDS011;32423;45.398;10.874;2023-06-10T01:05:18;11.27;;;9.32;;
46689;SDS011;32423;45.398;10.874;2023-06-10T01:11:03;12.43;;;9.95;;
46689;SDS011;32423;45.398;10.874;2023-06-10T01:13:53;17.98;;;10.82;;
46689;SDS011;32423;45.398;10.874;2023-06-10T01:16:41;17.05;;;11.05;;
46689;SDS011;32423;45.398;10.874;2023-06-10T01:19:28;13.32;;;10.73;;
46689;SDS011;32423;45.398;10.874;2023-06-10T01:22:15;12.13;;;9.13;;
46689;SDS011;32423;45.398;10.874;2023-06-10T01:25:00;11.23;;;9.30;;
46689;SDS011;32423;45.398;10.874;2023-06-10T01:27:47;14.73;;;11.63;;
46689;SDS011;32423;45.398;10.874;2023-06-10T01:30:37;13.27;;;8.80;;
46689;SDS011;32423;45.398;10.874;2023-06-10T01:33:33;12.13;;;9.82;;
46689;SDS011;32423;45.398;10.874;2023-06-10T01:36:22;13.38;;;10.50;;
46689;SDS011;32423;45.398;10.874;2023-06-10T01:39:08;15.38;;;10.43;;
46689;SDS011;32423;45.398;10.874;2023-06-10T01:41:55;15.27;;;11.63;;
46689;SDS011;32423;45.398;10.874;2023-06-10T01:44:41;19.27;;;12.77;;
46689;SDS011;32423;45.398;10.874;2023-06-10T01:47:26;17.60;;;12.25;;
46689;SDS011;32423;45.398;10.874;2023-06-10T01:50:11;14.95;;;10.98;;
46689;SDS011;32423;45.398;10.874;2023-06-10T01:52:57;11.10;;;9.48;;
46689;SDS011;32423;45.398;10.874;2023-06-10T01:55:42;14.25;;;11.23;;
46689;SDS011;32423;45.398;10.874;2023-06-10T01:58:27;15.73;;;12.00;;
46689;SDS011;32423;45.398;10.874;2023-06-10T02:01:12;13.85;;;10.23;;
46689;SDS011;32423;45.398;10.874;2023-06-10T02:03:57;16.80;;;11.98;;
46689;SDS011;32423;45.398;10.874;2023-06-10T02:06:42;17.83;;;10.75;;
46689;SDS011;32423;45.398;10.874;2023-06-10T02:09:26;12.25;;;10.40;;
46689;SDS011;32423;45.398;10.874;2023-06-10T02:12:11;15.93;;;12.35;;
46689;SDS011;32423;45.398;10.874;2023-06-10T02:14:56;13.13;;;9.77;;
46689;SDS011;32423;45.398;10.874;2023-06-10T02:17:41;13.90;;;10.23;;
46689;SDS011;32423;45.398;10.874;2023-06-10T02:20:26;13.75;;;10.88;;
46689;SDS011;32423;45.398;10.874;2023-06-10T02:23:11;25.77;;;11.15;;
46689;SDS011;32423;45.398;10.874;2023-06-10T02:25:56;23.50;;;11.85;;
46689;SDS011;32423;45.398;10.874;2023-06-10T02:28:42;12.05;;;9.55;;
46689;SDS011;32423;45.398;10.874;2023-06-10T02:31:28;13.05;;;9.98;;
46689;SDS011;32423;45.398;10.874;2023-06-10T02:34:13;16.63;;;11.07;;
46689;SDS011;32423;45.398;10.874;2023-06-10T02:36:59;15.73;;;11.18;;
46689;SDS011;32423;45.398;10.874;2023-06-10T02:39:44;14.48;;;11.05;;
46689;SDS011;32423;45.398;10.874;2023-06-10T02:42:29;11.52;;;8.80;;
46689;SDS011;32423;45.398;10.874;2023-06-10T02:45:14;11.05;;;9.35;;
46689;SDS011;32423;45.398;10.874;2023-06-10T02:48:01;13.77;;;9.85;;
46689;SDS011;32423;45.398;10.874;2023-06-10T02:50:46;13.07;;;9.07;;
46689;SDS011;32423;45.398;10.874;2023-06-10T02:53:40;13.10;;;10.98;;
46689;SDS011;32423;45.398;10.874;2023-06-10T02:56:29;15.45;;;11.68;;
46689;SDS011;32423;45.398;10.874;2023-06-10T02:59:17;14.60;;;10.90;;
46689;SDS011;32423;45.398;10.874;2023-06-10T03:02:02;10.00;;;8.93;;
46689;SDS011;32423;45.398;10.874;2023-06-10T03:04:52;14.18;;;10.18;;
46689;SDS011;32423;45.398;10.874;2023-06-10T03:07:38;18.52;;;12.80;;
46689;SDS011;32423;45.398;10.874;2023-06-10T03:10:23;28.50;;;19.08;;
46689;SDS011;32423;45.398;10.874;2023-06-10T03:13:09;29.48;;;18.88;;
46689;SDS011;32423;45.398;10.874;2023-06-10T03:15:55;26.95;;;18.42;;
46689;SDS011;32423;45.398;10.874;2023-06-10T03:18:42;19.40;;;15.32;;
46689;SDS011;32423;45.398;10.874;2023-06-10T03:21:27;20.30;;;14.23;;
46689;SDS011;32423;45.398;10.874;2023-06-10T03:24:14;20.58;;;15.73;;
46689;SDS011;32423;45.398;10.874;2023-06-10T03:26:59;19.95;;;14.73;;
46689;SDS011;32423;45.398;10.874;2023-06-10T03:29:45;22.25;;;16.30;;
46689;SDS011;32423;45.398;10.874;2023-06-10T03:32:30;23.30;;;14.95;;
46689;SDS011;32423;45.398;10.874;2023-06-10T03:35:16;17.80;;;10.93;;
46689;SDS011;32423;45.398;10.874;2023-06-10T03:38:01;14.52;;;10.77;;
46689;SDS011;32423;45.398;10.874;2023-06-10T03:40:46;14.88;;;11.02;;
46689;SDS011;32423;45.398;10.874;2023-06-10T03:43:32;12.85;;;10.85;;
46689;SDS011;32423;45.398;10.874;2023-06-10T03:46:17;13.50;;;10.88;;
46689;SDS011;32423;45.398;10.874;2023-06-10T03:49:02;13.80;;;11.48;;
46689;SDS011;32423;45.398;10.874;2023-06-10T03:51:48;15.48;;;12.23;;
46689;SDS011;32423;45.398;10.874;2023-06-10T03:54:34;19.95;;;14.50;;
46689;SDS011;32423;45.398;10.874;2023-06-10T03:57:21;22.88;;;15.50;;
46689;SDS011;32423;45.398;10.874;2023-06-10T04:00:06;15.63;;;12.25;;
46689;SDS011;32423;45.398;10.874;2023-06-10T04:03:00;12.50;;;10.57;;
46689;SDS011;32423;45.398;10.874;2023-06-10T04:05:50;14.23;;;10.05;;
46689;SDS011;32423;45.398;10.874;2023-06-10T04:08:35;13.30;;;10.70;;
46689;SDS011;32423;45.398;10.874;2023-06-10T04:11:20;17.27;;;12.15;;
46689;SDS011;32423;45.398;10.874;2023-06-10T04:14:05;15.50;;;11.85;;
46689;SDS011;32423;45.398;10.874;2023-06-10T04:16:50;13.75;;;11.00;;
46689;SDS011;32423;45.398;10.874;2023-06-10T04:19:36;16.23;;;10.73;;
46689;SDS011;32423;45.398;10.874;2023-06-10T04:22:23;17.17;;;9.82;;
46689;SDS011;32423;45.398;10.874;2023-06-10T04:25:08;13.93;;;10.02;;
46689;SDS011;32423;45.398;10.874;2023-06-10T04:27:54;12.95;;;9.75;;
46689;SDS011;32423;45.398;10.874;2023-06-10T04:30:39;12.48;;;10.73;;
46689;SDS011;32423;45.398;10.874;2023-06-10T04:33:25;13.48;;;11.45;;
46689;SDS011;32423;45.398;10.874;2023-06-10T04:36:10;14.82;;;10.88;;
46689;SDS011;32423;45.398;10.874;2023-06-10T04:38:55;14.07;;;10.98;;
46689;SDS011;32423;45.398;10.874;2023-06-10T04:41:40;19.13;;;12.18;;
46689;SDS011;32423;45.398;10.874;2023-06-10T04:44:26;12.48;;;11.15;;
46689;SDS011;32423;45.398;10.874;2023-06-10T04:47:11;12.88;;;11.32;;
46689;SDS011;32423;45.398;10.874;2023-06-10T04:49:56;10.52;;;9.07;;
46689;SDS011;32423;45.398;10.874;2023-06-10T04:52:41;16.33;;;11.82;;
46689;SDS011;32423;45.398;10.874;2023-06-10T04:55:26;18.08;;;11.85;;
46689;SDS011;32423;45.398;10.874;2023-06-10T04:58:11;16.95;;;10.82;;
46689;SDS011;32423;45.398;10.874;2023-06-10T05:00:56;17.90;;;11.57;;
46689;SDS011;32423;45.398;10.874;2023-06-10T05:03:40;16.45;;;11.63;;
46689;SDS011;32423;45.398;10.874;2023-06-10T05:06:25;13.88;;;11.73;;
46689;SDS011;32423;45.398;10.874;2023-06-10T05:09:10;10.52;;;8.93;;
46689;SDS011;32423;45.398;10.874;2023-06-10T05:11:55;12.40;;;10.05;;
46689;SDS011;32423;45.398;10.874;2023-06-10T05:14:40;13.60;;;10.30;;
46689;SDS011;32423;45.398;10.874;2023-06-10T05:17:25;12.80;;;9.63;;
46689;SDS011;32423;45.398;10.874;2023-06-10T05:20:10;14.15;;;10.82;;
46689;SDS011;32423;45.398;10.874;2023-06-10T05:22:55;15.20;;;11.00;;
46689;SDS011;32423;45.398;10.874;2023-06-10T05:25:40;12.77;;;8.57;;
46689;SDS011;32423;45.398;10.874;2023-06-10T05:28:26;10.20;;;8.07;;
46689;SDS011;32423;45.398;10.874;2023-06-10T05:31:11;12.60;;;8.85;;
46689;SDS011;32423;45.398;10.874;2023-06-10T05:33:56;10.90;;;8.23;;
46689;SDS011;32423;45.398;10.874;2023-06-10T05:36:41;10.48;;;7.40;;
46689;SDS011;32423;45.398;10.874;2023-06-10T05:39:26;8.90;;;7.95;;
46689;SDS011;32423;45.398;10.874;2023-06-10T05:42:11;10.70;;;6.85;;
46689;SDS011;32423;45.398;10.874;2023-06-10T05:44:56;7.45;;;5.97;;
46689;SDS011;32423;45.398;10.874;2023-06-10T05:47:41;7.20;;;5.75;;
46689;SDS011;32423;45.398;10.874;2023-06-10T05:50:26;9.43;;;6.63;;
46689;SDS011;32423;45.398;10.874;2023-06-10T05:53:11;25.42;;;6.45;;
46689;SDS011;32423;45.398;10.874;2023-06-10T05:55:59;7.57;;;6.00;;
46689;SDS011;32423;45.398;10.874;2023-06-10T05:58:44;9.82;;;6.00;;
46689;SDS011;32423;45.398;10.874;2023-06-10T06:01:29;8.07;;;6.60;;
46689;SDS011;32423;45.398;10.874;2023-06-10T06:04:14;9.38;;;6.18;;
46689;SDS011;32423;45.398;10.874;2023-06-10T06:06:59;8.40;;;6.43;;
46689;SDS011;32423;45.398;10.874;2023-06-10T06:09:44;12.98;;;7.47;;
46689;SDS011;32423;45.398;10.874;2023-06-10T06:15:13;8.57;;;6.07;;
46689;SDS011;32423;45.398;10.874;2023-06-10T06:17:57;8.63;;;6.35;;
46689;SDS011;32423;45.398;10.874;2023-06-10T06:20:42;9.48;;;7.28;;
46689;SDS011;32423;45.398;10.874;2023-06-10T06:23:27;10.45;;;7.63;;
46689;SDS011;32423;45.398;10.874;2023-06-10T06:26:11;10.65;;;7.97;;
46689;SDS011;32423;45.398;10.874;2023-06-10T06:28:56;11.00;;;8.73;;
46689;SDS011;32423;45.398;10.874;2023-06-10T06:31:41;12.43;;;8.02;;
46689;SDS011;32423;45.398;10.874;2023-06-10T06:34:26;7.97;;;6.97;;
46689;SDS011;32423;45.398;10.874;2023-06-10T06:37:11;12.43;;;8.73;;
46689;SDS011;32423;45.398;10.874;2023-06-10T06:39:59;15.40;;;10.02;;
46689;SDS011;32423;45.398;10.874;2023-06-10T06:42:44;12.55;;;9.65;;
46689;SDS011;32423;45.398;10.874;2023-06-10T06:45:49;12.25;;;9.38;;
46689;SDS011;32423;45.398;10.874;2023-06-10T06:48:34;10.00;;;7.97;;
46689;SDS011;32423;45.398;10.874;2023-06-10T06:51:19;14.50;;;10.23;;
46689;SDS011;32423;45.398;10.874;2023-06-10T06:54:04;16.10;;;10.25;;
46689;SDS011;32423;45.398;10.874;2023-06-10T06:56:50;11.95;;;8.57;;
46689;SDS011;32423;45.398;10.874;2023-06-10T06:59:35;15.68;;;10.80;;
46689;SDS011;32423;45.398;10.874;2023-06-10T07:02:20;16.98;;;9.23;;
46689;SDS011;32423;45.398;10.874;2023-06-10T07:05:04;13.27;;;10.63;;
46689;SDS011;32423;45.398;10.874;2023-06-10T07:07:49;17.00;;;12.93;;
46689;SDS011;32423;45.398;10.874;2023-06-10T07:10:39;18.15;;;12.18;;
46689;SDS011;32423;45.398;10.874;2023-06-10T07:13:24;17.67;;;12.32;;
46689;SDS011;32423;45.398;10.874;2023-06-10T07:16:09;13.25;;;9.70;;
46689;SDS011;32423;45.398;10.874;2023-06-10T07:18:54;17.25;;;11.20;;
46689;SDS011;32423;45.398;10.874;2023-06-10T07:21:39;16.13;;;12.43;;
46689;SDS011;32423;45.398;10.874;2023-06-10T07:24:24;25.67;;;11.50;;
46689;SDS011;32423;45.398;10.874;2023-06-10T07:27:09;19.08;;;13.55;;
46689;SDS011;32423;45.398;10.874;2023-06-10T07:29:54;24.50;;;12.90;;
46689;SDS011;32423;45.398;10.874;2023-06-10T07:32:39;22.92;;;13.75;;
46689;SDS011;32423;45.398;10.874;2023-06-10T07:35:24;26.80;;;14.82;;
46689;SDS011;32423;45.398;10.874;2023-06-10T07:38:09;18.38;;;12.95;;
46689;SDS011;32423;45.398;10.874;2023-06-10T07:40:54;20.83;;;13.07;;
46689;SDS011;32423;45.398;10.874;2023-06-10T07:43:38;19.63;;;11.93;;
46689;SDS011;32423;45.398;10.874;2023-06-10T07:46:23;15.07;;;10.75;;
46689;SDS011;32423;45.398;10.874;2023-06-10T07:49:08;15.25;;;11.52;;
46689;SDS011;32423;45.398;10.874;2023-06-10T07:51:54;16.55;;;11.02;;
46689;SDS011;32423;45.398;10.874;2023-06-10T07:54:39;18.42;;;11.25;;
46689;SDS011;32423;45.398;10.874;2023-06-10T07:57:24;16.20;;;11.07;;
46689;SDS011;32423;45.398;10.874;2023-06-10T08:00:09;16.52;;;10.05;;
46689;SDS011;32423;45.398;10.874;2023-06-10T08:02:57;18.25;;;10.68;;
46689;SDS011;32423;45.398;10.874;2023-06-10T08:08:26;29.85;;;10.80;;
46689;SDS011;32423;45.398;10.874;2023-06-10T08:13:55;17.58;;;10.45;;
46689;SDS011;32423;45.398;10.874;2023-06-10T08:16:45;16.83;;;9.48;;
46689;SDS011;32423;45.398;10.874;2023-06-10T08:19:30;18.38;;;8.00;;
46689;SDS011;32423;45.398;10.874;2023-06-10T08:22:15;13.57;;;8.18;;
46689;SDS011;32423;45.398;10.874;2023-06-10T08:25:00;13.63;;;7.93;;
46689;SDS011;32423;45.398;10.874;2023-06-10T08:27:44;7.90;;;5.27;;
46689;SDS011;32423;45.398;10.874;2023-06-10T12:09:35;6.80;;;3.22;;
46689;SDS011;32423;45.398;10.874;2023-06-10T12:12:20;9.52;;;2.50;;
46689;SDS011;32423;45.398;10.874;2023-06-10T12:15:06;4.65;;;1.92;;
46689;SDS011;32423;45.398;10.874;2023-06-10T12:17:52;8.13;;;1.60;;
46689;SDS011;32423;45.398;10.874;2023-06-10T12:20:37;4.80;;;2.58;;
46689;SDS011;32423;45.398;10.874;2023-06-10T12:23:23;10.48;;;2.17;;
46689;SDS011;32423;45.398;10.874;2023-06-10T12:26:08;17.55;;;3.38;;
46689;SDS011;32423;45.398;10.874;2023-06-10T12:28:53;5.13;;;2.10;;
46689;SDS011;32423;45.398;10.874;2023-06-10T12:34:51;10.82;;;2.42;;
46689;SDS011;32423;45.398;10.874;2023-06-10T12:38:01;6.90;;;2.15;;
46689;SDS011;32423;45.398;10.874;2023-06-10T12:40:50;4.63;;;2.03;;
46689;SDS011;32423;45.398;10.874;2023-06-10T12:43:36;4.00;;;2.33;;
46689;SDS011;32423;45.398;10.874;2023-06-10T12:46:24;3.17;;;2.15;;
46689;SDS011;32423;45.398;10.874;2023-06-10T12:49:28;4.07;;;1.95;;
46689;SDS011;32423;45.398;10.874;2023-06-10T12:52:13;7.77;;;2.77;;
46689;SDS011;32423;45.398;10.874;2023-06-10T12:54:58;6.28;;;2.13;;
46689;SDS011;32423;45.398;10.874;2023-06-10T12:57:50;4.60;;;1.85;;
46689;SDS011;32423;45.398;10.874;2023-06-10T13:00:35;9.60;;;2.00;;
46689;SDS011;32423;45.398;10.874;2023-06-10T13:03:20;3.00;;;1.90;;
46689;SDS011;32423;45.398;10.874;2023-06-10T13:06:05;7.00;;;2.42;;
46689;SDS011;32423;45.398;10.874;2023-06-10T13:08:50;5.68;;;3.20;;
46689;SDS011;32423;45.398;10.874;2023-06-10T13:11:35;5.38;;;1.95;;
46689;SDS011;32423;45.398;10.874;2023-06-10T13:14:20;4.95;;;1.92;;
46689;SDS011;32423;45.398;10.874;2023-06-10T13:17:06;8.05;;;3.28;;
46689;SDS011;32423;45.398;10.874;2023-06-10T13:19:50;6.15;;;2.67;;
46689;SDS011;32423;45.398;10.874;2023-06-10T13:22:35;6.22;;;2.70;;
46689;SDS011;32423;45.398;10.874;2023-06-10T13:25:20;10.10;;;2.95;;
46689;SDS011;32423;45.398;10.874;2023-06-10T13:28:05;8.00;;;2.78;;
46689;SDS011;32423;45.398;10.874;2023-06-10T13:30:50;6.70;;;3.28;;
46689;SDS011;32423;45.398;10.874;2023-06-10T13:33:36;6.72;;;3.60;;
46689;SDS011;32423;45.398;10.874;2023-06-10T13:36:20;7.30;;;3.00;;
46689;SDS011;32423;45.398;10.874;2023-06-10T13:39:05;6.00;;;2.25;;
46689;SDS011;32423;45.398;10.874;2023-06-10T13:46:15;6.65;;;2.60;;
46689;SDS011;32423;45.398;10.874;2023-06-10T13:49:00;4.40;;;2.97;;
46689;SDS011;32423;45.398;10.874;2023-06-10T13:51:45;5.90;;;2.40;;
46689;SDS011;32423;45.398;10.874;2023-06-10T13:54:29;5.43;;;2.45;;
46689;SDS011;32423;45.398;10.874;2023-06-10T14:01:33;11.40;;;2.58;;
46689;SDS011;32423;45.398;10.874;2023-06-10T14:04:18;3.78;;;2.28;;
46689;SDS011;32423;45.398;10.874;2023-06-10T14:07:04;4.97;;;2.03;;
46689;SDS011;32423;45.398;10.874;2023-06-10T14:09:49;8.82;;;2.42;;
46689;SDS011;32423;45.398;10.874;2023-06-10T14:12:35;6.15;;;2.65;;
46689;SDS011;32423;45.398;10.874;2023-06-10T14:15:20;6.10;;;2.00;;
46689;SDS011;32423;45.398;10.874;2023-06-10T14:18:05;3.58;;;2.30;;
46689;SDS011;32423;45.398;10.874;2023-06-10T14:20:52;5.90;;;1.50;;
46689;SDS011;32423;45.398;10.874;2023-06-10T14:23:37;2.35;;;1.60;;
46689;SDS011;32423;45.398;10.874;2023-06-10T14:26:22;7.80;;;1.98;;
46689;SDS011;32423;45.398;10.874;2023-06-10T14:29:07;12.82;;;1.92;;
46689;SDS011;32423;45.398;10.874;2023-06-10T14:31:53;3.75;;;1.40;;
46689;SDS011;32423;45.398;10.874;2023-06-10T14:34:38;8.43;;;1.75;;
46689;SDS011;32423;45.398;10.874;2023-06-10T14:37:23;4.78;;;2.15;;
46689;SDS011;32423;45.398;10.874;2023-06-10T14:40:08;8.50;;;2.13;;
46689;SDS011;32423;45.398;10.874;2023-06-10T14:42:57;12.07;;;1.85;;
46689;SDS011;32423;45.398;10.874;2023-06-10T14:45:42;6.50;;;1.33;;
46689;SDS011;32423;45.398;10.874;2023-06-10T14:48:28;5.07;;;1.40;;
46689;SDS011;32423;45.398;10.874;2023-06-10T14:51:13;8.75;;;1.90;;
46689;SDS011;32423;45.398;10.874;2023-06-10T14:53:58;21.67;;;3.60;;
46689;SDS011;32423;45.398;10.874;2023-06-10T14:56:43;3.47;;;1.88;;
46689;SDS011;32423;45.398;10.874;2023-06-10T14:59:28;4.25;;;2.33;;
46689;SDS011;32423;45.398;10.874;2023-06-10T15:02:12;4.93;;;2.22;;
46689;SDS011;32423;45.398;10.874;2023-06-10T15:04:57;6.53;;;2.40;;
46689;SDS011;32423;45.398;10.874;2023-06-10T15:07:42;2.22;;;1.55;;
46689;SDS011;32423;45.398;10.874;2023-06-10T15:10:28;5.55;;;2.22;;
46689;SDS011;32423;45.398;10.874;2023-06-10T15:13:12;5.38;;;2.55;;
46689;SDS011;32423;45.398;10.874;2023-06-10T15:15:57;8.18;;;2.05;;
46689;SDS011;32423;45.398;10.874;2023-06-10T15:18:42;8.45;;;2.60;;
46689;SDS011;32423;45.398;10.874;2023-06-10T15:21:27;2.90;;;1.40;;
46689;SDS011;32423;45.398;10.874;2023-06-10T15:24:12;4.40;;;2.08;;
46689;SDS011;32423;45.398;10.874;2023-06-10T15:29:41;7.22;;;1.75;;
46689;SDS011;32423;45.398;10.874;2023-06-10T15:32:26;5.43;;;2.55;;
46689;SDS011;32423;45.398;10.874;2023-06-10T15:35:11;10.50;;;2.55;;
46689;SDS011;32423;45.398;10.874;2023-06-10T15:37:56;5.47;;;1.77;;
46689;SDS011;32423;45.398;10.874;2023-06-10T15:43:25;10.10;;;2.40;;
46689;SDS011;32423;45.398;10.874;2023-06-10T15:46:10;7.88;;;1.73;;
46689;SDS011;32423;45.398;10.874;2023-06-10T15:48:56;5.30;;;1.73;;
46689;SDS011;32423;45.398;10.874;2023-06-10T15:51:41;3.53;;;1.70;;
46689;SDS011;32423;45.398;10.874;2023-06-10T15:54:26;5.00;;;1.42;;
46689;SDS011;32423;45.398;10.874;2023-06-10T15:57:11;6.70;;;2.20;;
46689;SDS011;32423;45.398;10.874;2023-06-10T15:59:56;6.38;;;1.50;;
46689;SDS011;32423;45.398;10.874;2023-06-10T16:02:41;4.82;;;1.80;;
46689;SDS011;32423;45.398;10.874;2023-06-10T16:08:10;2.38;;;1.38;;
46689;SDS011;32423;45.398;10.874;2023-06-10T16:10:57;5.43;;;2.10;;
46689;SDS011;32423;45.398;10.874;2023-06-10T16:13:42;8.95;;;2.17;;
46689;SDS011;32423;45.398;10.874;2023-06-10T16:16:27;7.72;;;1.85;;
46689;SDS011;32423;45.398;10.874;2023-06-10T16:21:56;4.00;;;1.33;;
46689;SDS011;32423;45.398;10.874;2023-06-10T16:24:41;8.52;;;2.22;;
46689;SDS011;32423;45.398;10.874;2023-06-10T16:27:26;4.30;;;1.88;;
46689;SDS011;32423;45.398;10.874;2023-06-10T16:30:11;4.50;;;1.40;;
46689;SDS011;32423;45.398;10.874;2023-06-10T16:32:58;3.50;;;1.92;;
46689;SDS011;32423;45.398;10.874;2023-06-10T16:35:43;2.67;;;1.45;;
46689;SDS011;32423;45.398;10.874;2023-06-10T16:38:29;6.07;;;1.55;;
46689;SDS011;32423;45.398;10.874;2023-06-10T16:43:59;3.65;;;1.08;;
46689;SDS011;32423;45.398;10.874;2023-06-10T16:46:44;4.45;;;1.70;;
46689;SDS011;32423;45.398;10.874;2023-06-10T16:49:30;5.60;;;1.90;;
46689;SDS011;32423;45.398;10.874;2023-06-10T16:52:15;2.90;;;1.38;;
46689;SDS011;32423;45.398;10.874;2023-06-10T16:55:00;2.38;;;1.40;;
46689;SDS011;32423;45.398;10.874;2023-06-10T16:57:45;4.38;;;1.90;;
46689;SDS011;32423;45.398;10.874;2023-06-10T17:03:14;2.57;;;1.40;;
46689;SDS011;32423;45.398;10.874;2023-06-10T17:05:59;14.48;;;2.35;;
46689;SDS011;32423;45.398;10.874;2023-06-10T17:08:44;5.80;;;1.33;;
46689;SDS011;32423;45.398;10.874;2023-06-10T17:11:30;12.23;;;2.05;;
46689;SDS011;32423;45.398;10.874;2023-06-10T17:14:16;6.30;;;1.95;;
46689;SDS011;32423;45.398;10.874;2023-06-10T17:17:00;3.67;;;1.48;;
46689;SDS011;32423;45.398;10.874;2023-06-10T17:19:45;8.80;;;1.30;;
46689;SDS011;32423;45.398;10.874;2023-06-10T17:25:14;11.30;;;1.50;;
46689;SDS011;32423;45.398;10.874;2023-06-10T17:27:59;5.30;;;0.90;;
46689;SDS011;32423;45.398;10.874;2023-06-10T17:33:30;8.05;;;1.50;;
46689;SDS011;32423;45.398;10.874;2023-06-10T17:36:14;5.88;;;1.85;;
46689;SDS011;32423;45.398;10.874;2023-06-10T17:38:59;8.18;;;1.75;;
46689;SDS011;32423;45.398;10.874;2023-06-10T17:41:44;4.85;;;1.70;;
46689;SDS011;32423;45.398;10.874;2023-06-10T17:44:29;3.38;;;1.40;;
46689;SDS011;32423;45.398;10.874;2023-06-10T17:47:15;3.38;;;1.65;;
46689;SDS011;32423;45.398;10.874;2023-06-10T17:50:00;7.88;;;2.10;;
46689;SDS011;32423;45.398;10.874;2023-06-10T17:52:45;7.97;;;1.65;;
46689;SDS011;32423;45.398;10.874;2023-06-10T17:55:30;10.48;;;1.92;;
46689;SDS011;32423;45.398;10.874;2023-06-10T17:58:15;6.68;;;2.45;;
46689;SDS011;32423;45.398;10.874;2023-06-10T18:03:44;4.10;;;2.13;;
46689;SDS011;32423;45.398;10.874;2023-06-10T18:06:30;4.28;;;2.20;;
46689;SDS011;32423;45.398;10.874;2023-06-10T18:09:15;8.43;;;3.00;;
46689;SDS011;32423;45.398;10.874;2023-06-10T18:12:00;8.02;;;2.53;;
46689;SDS011;32423;45.398;10.874;2023-06-10T18:14:45;6.90;;;2.45;;
46689;SDS011;32423;45.398;10.874;2023-06-10T18:17:30;8.38;;;2.53;;
46689;SDS011;32423;45.398;10.874;2023-06-10T18:20:17;13.05;;;3.33;;
46689;SDS011;32423;45.398;10.874;2023-06-10T18:23:02;6.45;;;2.88;;
46689;SDS011;32423;45.398;10.874;2023-06-10T18:25:47;11.93;;;2.88;;
46689;SDS011;32423;45.398;10.874;2023-06-10T18:28:32;7.30;;;2.35;;
46689;SDS011;32423;45.398;10.874;2023-06-10T18:31:17;7.22;;;3.22;;
46689;SDS011;32423;45.398;10.874;2023-06-10T18:34:02;5.72;;;2.97;;
46689;SDS011;32423;45.398;10.874;2023-06-10T18:36:47;8.68;;;2.88;;
46689;SDS011;32423;45.398;10.874;2023-06-10T18:39:32;8.38;;;2.97;;
46689;SDS011;32423;45.398;10.874;2023-06-10T18:42:17;10.38;;;2.97;;
46689;SDS011;32423;45.398;10.874;2023-06-10T18:47:46;5.53;;;2.47;;
46689;SDS011;32423;45.398;10.874;2023-06-10T18:50:31;5.10;;;2.35;;
46689;SDS011;32423;45.398;10.874;2023-06-10T18:53:16;3.85;;;2.08;;
46689;SDS011;32423;45.398;10.874;2023-06-10T18:56:01;8.95;;;3.03;;
46689;SDS011;32423;45.398;10.874;2023-06-10T18:58:47;8.95;;;2.47;;
46689;SDS011;32423;45.398;10.874;2023-06-10T19:01:33;2.20;;;1.30;;
46689;SDS011;32423;45.398;10.874;2023-06-10T19:04:19;14.10;;;1.65;;
46689;SDS011;32423;45.398;10.874;2023-06-10T19:07:04;3.33;;;1.17;;
46689;SDS011;32423;45.398;10.874;2023-06-10T19:09:49;5.10;;;1.30;;
46689;SDS011;32423;45.398;10.874;2023-06-10T19:12:34;6.20;;;1.05;;
46689;SDS011;32423;45.398;10.874;2023-06-10T19:15:18;2.88;;;1.00;;
46689;SDS011;32423;45.398;10.874;2023-06-10T19:18:04;0.88;;;0.70;;
46689;SDS011;32423;45.398;10.874;2023-06-10T19:20:49;2.05;;;0.82;;
46689;SDS011;32423;45.398;10.874;2023-06-10T19:23:35;2.83;;;1.20;;
46689;SDS011;32423;45.398;10.874;2023-06-10T19:26:20;4.43;;;0.88;;
46689;SDS011;32423;45.398;10.874;2023-06-10T19:29:05;1.90;;;1.48;;
46689;SDS011;32423;45.398;10.874;2023-06-10T19:31:50;1.55;;;0.90;;
46689;SDS011;32423;45.398;10.874;2023-06-10T19:34:35;0.77;;;0.60;;
46689;SDS011;32423;45.398;10.874;2023-06-10T19:37:20;1.58;;;1.02;;
46689;SDS011;32423;45.398;10.874;2023-06-10T19:40:06;3.53;;;1.40;;
46689;SDS011;32423;45.398;10.874;2023-06-10T19:42:51;3.22;;;1.13;;
46689;SDS011;32423;45.398;10.874;2023-06-10T19:45:36;2.58;;;1.48;;
46689;SDS011;32423;45.398;10.874;2023-06-10T19:48:21;8.10;;;1.45;;
46689;SDS011;32423;45.398;10.874;2023-06-10T19:51:06;5.82;;;1.40;;
46689;SDS011;32423;45.398;10.874;2023-06-10T19:53:51;6.07;;;1.35;;
46689;SDS011;32423;45.398;10.874;2023-06-10T19:56:37;2.17;;;1.10;;
46689;SDS011;32423;45.398;10.874;2023-06-10T19:59:22;4.45;;;1.38;;
46689;SDS011;32423;45.398;10.874;2023-06-10T20:02:07;6.18;;;1.83;;
46689;SDS011;32423;45.398;10.874;2023-06-10T20:04:52;6.07;;;1.88;;
46689;SDS011;32423;45.398;10.874;2023-06-10T20:07:37;3.22;;;1.70;;
46689;SDS011;32423;45.398;10.874;2023-06-10T20:10:22;2.50;;;1.50;;
46689;SDS011;32423;45.398;10.874;2023-06-10T20:13:07;4.22;;;1.65;;
46689;SDS011;32423;45.398;10.874;2023-06-10T20:15:53;6.28;;;2.53;;
46689;SDS011;32423;45.398;10.874;2023-06-10T20:18:39;5.15;;;2.15;;
46689;SDS011;32423;45.398;10.874;2023-06-10T20:21:24;2.80;;;1.60;;
46689;SDS011;32423;45.398;10.874;2023-06-10T20:24:09;3.60;;;1.50;;
46689;SDS011;32423;45.398;10.874;2023-06-10T20:26:54;2.58;;;1.83;;
46689;SDS011;32423;45.398;10.874;2023-06-10T20:29:39;4.68;;;1.80;;
46689;SDS011;32423;45.398;10.874;2023-06-10T20:32:24;3.35;;;1.58;;
46689;SDS011;32423;45.398;10.874;2023-06-10T20:35:09;4.43;;;1.67;;
46689;SDS011;32423;45.398;10.874;2023-06-10T20:37:54;2.92;;;1.73;;
46689;SDS011;32423;45.398;10.874;2023-06-10T20:40:39;3.70;;;2.10;;
46689;SDS011;32423;45.398;10.874;2023-06-10T20:43:24;11.95;;;2.28;;
46689;SDS011;32423;45.398;10.874;2023-06-10T20:46:09;4.80;;;1.80;;